createdAt,value
2018-11-14T00:00:20.795Z,86.39
2018-11-14T00:02:49.505Z,86.52
2018-11-14T00:05:18.193Z,86.77
2018-11-14T00:07:46.920Z,86.69
2018-11-14T00:10:15.663Z,86.50
2018-11-14T00:12:44.431Z,86.49
2018-11-14T00:15:16.793Z,86.37
2018-11-14T00:17:46.383Z,86.48
2018-11-14T00:20:15.242Z,86.33
2018-11-14T00:22:44.957Z,86.07
2018-11-14T00:25:13.657Z,85.99
2018-11-14T00:27:42.711Z,86.12
2018-11-14T00:30:17.188Z,86.44
2018-11-14T00:32:45.777Z,86.62
2018-11-14T00:35:14.831Z,86.39
2018-11-14T00:37:43.974Z,86.87
2018-11-14T00:40:13.985Z,86.64
2018-11-14T00:42:43.240Z,86.52
2018-11-14T00:45:13.734Z,87.06
2018-11-14T00:47:43.417Z,87.24
2018-11-14T00:50:13.302Z,87.17
2018-11-14T00:52:42.505Z,87.14
2018-11-14T00:55:14.574Z,87.24
2018-11-14T00:57:44.427Z,88.16
2018-11-14T01:00:19.322Z,88.52
2018-11-14T01:02:47.997Z,88.54
2018-11-14T01:05:17.252Z,88.48
2018-11-14T01:07:45.956Z,88.28
2018-11-14T01:10:16.316Z,88.27
2018-11-14T01:12:45.628Z,87.83
2018-11-14T01:15:16.173Z,87.90
2018-11-14T01:17:44.858Z,88.30
2018-11-14T01:20:15.402Z,88.32
2018-11-14T01:22:44.589Z,88.34
2018-11-14T01:25:14.433Z,88.19
2018-11-14T01:27:44.583Z,87.41
2018-11-14T01:30:15.649Z,87.65
2018-11-14T01:32:45.039Z,88.15
2018-11-14T01:35:14.048Z,87.85
2018-11-14T01:37:42.730Z,88.09
2018-11-14T01:40:14.686Z,88.35
2018-11-14T01:42:43.854Z,88.73
2018-11-14T01:45:12.569Z,89.18
2018-11-14T01:47:41.206Z,89.00
2018-11-14T01:50:10.448Z,88.83
2018-11-14T01:52:39.436Z,88.52
2018-11-14T01:55:09.683Z,88.04
2018-11-14T01:57:38.431Z,87.86
2018-11-14T02:00:11.762Z,87.18
2018-11-14T02:02:40.482Z,86.26
2018-11-14T02:05:09.835Z,85.54
2018-11-14T02:07:38.520Z,85.97
2018-11-14T02:10:08.909Z,85.94
2018-11-14T02:12:38.538Z,86.12
2018-11-14T02:15:09.320Z,85.08
2018-11-14T02:17:38.398Z,84.94
2018-11-14T02:20:07.227Z,85.39
2018-11-14T02:22:38.955Z,85.87
2018-11-14T02:25:08.348Z,86.98
2018-11-14T02:27:37.061Z,87.62
2018-11-14T02:30:13.049Z,88.04
2018-11-14T02:32:41.734Z,88.69
2018-11-14T02:35:10.796Z,88.16
2018-11-14T02:37:40.282Z,87.37
2018-11-14T02:40:11.205Z,87.20
2018-11-14T02:42:39.889Z,87.13
2018-11-14T02:45:09.131Z,86.52
2018-11-14T02:47:37.838Z,86.73
2018-11-14T02:50:07.593Z,86.40
2018-11-14T02:52:36.265Z,86.65
2018-11-14T02:55:05.829Z,86.31
2018-11-14T02:57:34.449Z,86.73
2018-11-14T03:00:07.246Z,87.34
2018-11-14T03:02:35.926Z,86.34
2018-11-14T03:05:04.761Z,85.66
2018-11-14T03:07:33.385Z,84.92
2018-11-14T03:10:02.041Z,84.64
2018-11-14T03:12:30.805Z,84.79
2018-11-14T03:14:59.451Z,84.99
2018-11-14T03:17:28.160Z,85.66
2018-11-14T03:19:56.855Z,85.38
2018-11-14T03:22:25.523Z,85.33
2018-11-14T03:24:54.239Z,85.63
2018-11-14T03:27:22.894Z,85.56
2018-11-14T03:29:51.519Z,85.41
2018-11-14T03:32:20.150Z,85.90
2018-11-14T03:34:48.793Z,85.60
2018-11-14T03:37:17.424Z,85.62
2018-11-14T03:39:46.137Z,85.44
2018-11-14T03:42:14.827Z,85.75
2018-11-14T03:44:43.472Z,85.70
2018-11-14T03:47:12.138Z,85.81
2018-11-14T03:49:40.979Z,85.35
2018-11-14T03:52:09.675Z,85.38
2018-11-14T03:54:38.377Z,85.36
2018-11-14T03:57:07.135Z,85.69
2018-11-14T03:59:35.800Z,85.86
2018-11-14T04:02:04.513Z,85.94
2018-11-14T04:04:33.179Z,86.57
2018-11-14T04:07:01.873Z,87.15
2018-11-14T04:09:30.592Z,87.74
2018-11-14T04:11:59.206Z,88.45
2018-11-14T04:14:27.855Z,89.23
2018-11-14T04:16:56.493Z,88.40
2018-11-14T04:19:25.109Z,89.51
2018-11-14T04:21:53.800Z,89.45
2018-11-14T04:24:22.403Z,89.57
2018-11-14T04:26:51.058Z,90.03
2018-11-14T04:29:19.776Z,89.67
2018-11-14T04:31:48.402Z,90.04
2018-11-14T04:34:17.038Z,90.27
2018-11-14T04:36:45.692Z,89.53
2018-11-14T04:39:14.341Z,89.32
2018-11-14T04:41:43.060Z,89.85
2018-11-14T04:44:11.822Z,90.06
2018-11-14T04:46:40.542Z,90.19
2018-11-14T04:49:09.179Z,89.23
2018-11-14T04:51:37.878Z,89.74
2018-11-14T04:54:06.554Z,89.69
2018-11-14T04:56:35.201Z,89.38
2018-11-14T04:59:04.190Z,89.04
2018-11-14T05:01:32.781Z,88.04
2018-11-14T05:04:01.452Z,86.92
2018-11-14T05:06:30.066Z,86.99
2018-11-14T05:08:58.713Z,86.28
2018-11-14T05:11:27.333Z,85.86
2018-11-14T05:13:56.021Z,86.86
2018-11-14T05:16:24.706Z,87.22
2018-11-14T05:18:53.399Z,87.81
2018-11-14T05:21:22.209Z,87.72
2018-11-14T05:23:51.339Z,87.18
2018-11-14T05:26:19.965Z,87.54
2018-11-14T05:28:48.601Z,86.82
2018-11-14T05:31:17.286Z,86.71
2018-11-14T05:33:45.867Z,86.97
2018-11-14T05:36:14.475Z,86.49
2018-11-14T05:38:43.211Z,87.24
2018-11-14T05:41:11.877Z,87.66
2018-11-14T05:43:40.547Z,88.23
2018-11-14T05:46:09.249Z,88.23
2018-11-14T05:48:37.878Z,88.78
2018-11-14T05:51:06.509Z,88.98
2018-11-14T05:53:35.204Z,88.39
2018-11-14T05:56:03.979Z,88.38
2018-11-14T05:58:32.663Z,88.26
2018-11-14T06:01:01.399Z,88.07
2018-11-14T06:03:29.980Z,88.09
2018-11-14T06:05:58.657Z,88.26
2018-11-14T06:08:27.388Z,88.06
2018-11-14T06:10:56.172Z,88.35
2018-11-14T06:13:24.807Z,88.78
2018-11-14T06:15:53.488Z,88.76
2018-11-14T06:18:22.198Z,87.84
2018-11-14T06:20:50.845Z,87.60
2018-11-14T06:23:19.489Z,86.76
2018-11-14T06:25:48.142Z,85.96
2018-11-14T06:28:16.826Z,86.14
2018-11-14T06:30:45.526Z,85.56
2018-11-14T06:33:14.179Z,85.57
2018-11-14T06:35:42.841Z,84.35
2018-11-14T06:38:11.629Z,83.94
2018-11-14T06:40:40.301Z,83.33
2018-11-14T06:43:09.025Z,81.94
2018-11-14T06:45:37.769Z,81.20
2018-11-14T06:48:06.692Z,84.26
2018-11-14T06:50:35.394Z,82.75
2018-11-14T06:53:10.698Z,79.77
2018-11-14T06:55:39.398Z,76.03
2018-11-14T06:58:08.046Z,76.50
2018-11-14T07:00:36.933Z,75.93
2018-11-14T07:03:06.948Z,75.74
2018-11-14T07:05:35.693Z,75.29
2018-11-14T07:08:04.652Z,75.19
2018-11-14T07:10:34.952Z,73.98
2018-11-14T07:13:06.491Z,74.12
2018-11-14T07:15:35.856Z,73.31
2018-11-14T07:18:04.771Z,72.57
2018-11-14T07:20:35.009Z,72.13
2018-11-14T07:23:04.594Z,71.96
2018-11-14T07:25:33.395Z,71.65
2018-11-14T07:28:02.077Z,72.46
2018-11-14T07:30:31.666Z,72.27
2018-11-14T07:33:07.519Z,72.24
2018-11-14T07:35:36.318Z,71.43
2018-11-14T07:38:11.876Z,71.17
2018-11-14T07:40:40.598Z,70.52
2018-11-14T07:43:09.277Z,71.69
2018-11-14T07:45:37.919Z,71.61
2018-11-14T07:48:06.879Z,71.83
2018-11-14T07:50:35.565Z,71.31
2018-11-14T07:53:04.222Z,70.90
2018-11-14T07:55:32.854Z,70.78
2018-11-14T07:58:01.473Z,70.30
2018-11-14T08:00:30.110Z,70.03
2018-11-14T08:02:58.994Z,68.97
2018-11-14T08:05:27.722Z,69.17
2018-11-14T08:07:56.515Z,68.98
2018-11-14T08:10:25.189Z,68.49
2018-11-14T08:12:53.790Z,68.74
2018-11-14T08:15:22.455Z,67.49
2018-11-14T08:17:51.049Z,67.12
2018-11-14T08:20:19.684Z,67.05
2018-11-14T08:22:48.354Z,68.56
2018-11-14T08:25:17.138Z,68.67
2018-11-14T08:27:45.761Z,69.45
2018-11-14T08:30:14.481Z,69.06
2018-11-14T08:32:43.146Z,70.06
2018-11-14T08:35:11.948Z,70.51
2018-11-14T08:37:41.248Z,71.33
2018-11-14T08:40:10.538Z,72.00
2018-11-14T08:42:39.655Z,71.92
2018-11-14T08:45:10.287Z,72.26
2018-11-14T08:47:39.448Z,72.12
2018-11-14T08:50:12.347Z,72.59
2018-11-14T08:52:41.749Z,72.66
2018-11-14T08:55:11.510Z,73.10
2018-11-14T08:57:41.182Z,72.81
2018-11-14T09:00:12.661Z,73.25
2018-11-14T09:02:41.343Z,73.20
2018-11-14T09:05:10.409Z,73.30
2018-11-14T09:07:39.243Z,73.29
2018-11-14T09:10:10.485Z,73.31
2018-11-14T09:12:39.734Z,74.03
2018-11-14T09:15:09.597Z,74.83
2018-11-14T09:17:38.249Z,74.66
2018-11-14T09:20:08.136Z,74.37
2018-11-14T09:22:36.847Z,74.99
2018-11-14T09:25:07.267Z,74.49
2018-11-14T09:27:36.005Z,74.26
2018-11-14T09:30:09.861Z,74.08
2018-11-14T09:32:38.505Z,73.50
2018-11-14T09:35:08.304Z,72.83
2018-11-14T09:37:36.927Z,72.31
2018-11-14T09:40:07.264Z,72.03
2018-11-14T09:42:36.145Z,71.53
2018-11-14T09:45:05.495Z,71.31
2018-11-14T09:47:34.258Z,71.39
2018-11-14T09:50:03.025Z,70.70
2018-11-14T09:52:31.640Z,70.67
2018-11-14T09:55:00.313Z,70.88
2018-11-14T09:57:28.954Z,71.36
2018-11-14T09:59:57.696Z,71.58
2018-11-14T10:02:26.325Z,71.53
2018-11-14T10:04:54.981Z,71.55
2018-11-14T10:07:23.677Z,71.61
2018-11-14T10:09:52.349Z,71.45
2018-11-14T10:12:21.109Z,71.25
2018-11-14T10:14:49.775Z,70.82
2018-11-14T10:17:18.492Z,70.93
2018-11-14T10:19:47.129Z,71.35
2018-11-14T10:22:15.725Z,71.34
2018-11-14T10:24:44.468Z,71.39
2018-11-14T10:27:13.093Z,71.20
2018-11-14T10:29:41.796Z,71.71
2018-11-14T10:32:10.477Z,71.56
2018-11-14T10:34:39.166Z,72.20
2018-11-14T10:37:07.837Z,72.25
2018-11-14T10:39:36.477Z,72.34
2018-11-14T10:42:05.372Z,72.73
2018-11-14T10:44:33.997Z,72.44
2018-11-14T10:47:02.645Z,73.05
2018-11-14T10:49:31.262Z,72.96
2018-11-14T10:51:59.910Z,73.14
2018-11-14T10:54:28.621Z,72.97
2018-11-14T10:56:57.248Z,72.95
2018-11-14T10:59:25.846Z,72.97
2018-11-14T11:01:59.778Z,72.39
2018-11-14T11:04:33.782Z,73.40
2018-11-14T11:07:07.641Z,73.17
2018-11-14T11:09:41.428Z,73.98
2018-11-14T11:12:15.422Z,73.12
2018-11-14T11:14:49.213Z,73.45
2018-11-14T11:17:22.981Z,72.78
2018-11-14T11:19:52.367Z,72.91
2018-11-14T11:22:21.013Z,72.49
2018-11-14T11:24:49.698Z,73.04
2018-11-14T11:27:18.338Z,73.24
2018-11-14T11:29:46.953Z,73.00
2018-11-14T11:32:15.642Z,74.42
2018-11-14T11:34:44.298Z,74.11
2018-11-14T11:37:12.940Z,74.65
2018-11-14T11:39:41.555Z,74.85
2018-11-14T11:42:10.433Z,74.85
2018-11-14T11:44:39.145Z,75.05
2018-11-14T11:47:07.762Z,75.50
2018-11-14T11:49:36.448Z,76.15
2018-11-14T11:52:05.313Z,76.05
2018-11-14T11:54:34.026Z,76.03
2018-11-14T11:57:02.729Z,76.97
2018-11-14T11:59:31.466Z,76.81
2018-11-14T12:02:00.210Z,77.38
2018-11-14T12:04:30.135Z,77.44
2018-11-14T12:06:58.340Z,77.49
2018-11-14T12:09:27.003Z,77.87
2018-11-14T12:11:55.613Z,78.57
2018-11-14T12:14:24.284Z,78.57
2018-11-14T12:16:52.939Z,79.57
2018-11-14T12:19:21.618Z,79.23
2018-11-14T12:21:50.286Z,79.86
2018-11-14T12:24:18.937Z,79.74
2018-11-14T12:26:47.675Z,79.77
2018-11-14T12:29:16.390Z,79.88
2018-11-14T12:31:44.987Z,80.01
2018-11-14T12:34:13.705Z,80.49
2018-11-14T12:36:42.403Z,80.71
2018-11-14T12:39:11.057Z,80.78
2018-11-14T12:41:39.685Z,81.12
2018-11-14T12:44:08.360Z,81.43
2018-11-14T12:46:37.065Z,81.80
2018-11-14T12:49:05.845Z,81.99
2018-11-14T12:51:34.485Z,81.92
2018-11-14T12:54:03.151Z,82.08
2018-11-14T12:56:31.814Z,82.42
2018-11-14T12:59:00.465Z,82.72
2018-11-14T13:01:29.113Z,82.37
2018-11-14T13:03:58.010Z,82.45
2018-11-14T13:09:00.597Z,82.54
2018-11-14T13:11:29.253Z,82.88
2018-11-14T13:13:57.928Z,82.66
2018-11-14T13:16:26.656Z,82.94
2018-11-14T13:18:55.355Z,83.43
2018-11-14T13:21:24.079Z,83.25
2018-11-14T13:23:52.698Z,83.69
2018-11-14T13:26:21.453Z,83.98
2018-11-14T13:28:50.186Z,84.06
2018-11-14T13:31:18.934Z,84.26
2018-11-14T13:33:47.651Z,84.35
2018-11-14T13:36:16.302Z,84.09
2018-11-14T13:38:45.005Z,84.49
2018-11-14T13:41:13.658Z,84.43
2018-11-14T13:43:42.365Z,84.81
2018-11-14T13:46:11.042Z,84.52
2018-11-14T13:48:39.769Z,84.68
2018-11-14T13:51:08.508Z,84.68
2018-11-14T13:53:37.105Z,84.96
2018-11-14T13:56:05.965Z,85.16
2018-11-14T13:58:34.625Z,85.30
2018-11-14T14:01:03.361Z,85.17
2018-11-14T14:03:32.001Z,85.52
2018-11-14T14:06:00.664Z,85.89
2018-11-14T14:08:29.359Z,86.13
2018-11-14T14:10:58.107Z,86.62
2018-11-14T14:13:26.724Z,85.85
2018-11-14T14:15:55.427Z,86.20
2018-11-14T14:18:24.070Z,85.84
2018-11-14T14:20:52.727Z,85.81
2018-11-14T14:23:21.402Z,85.97
2018-11-14T14:25:50.113Z,86.13
2018-11-14T14:28:18.781Z,85.33
2018-11-14T14:30:47.556Z,85.35
2018-11-14T14:33:16.208Z,85.28
2018-11-14T14:35:44.948Z,85.27
2018-11-14T14:38:13.660Z,85.17
2018-11-14T14:40:42.361Z,85.59
2018-11-14T14:43:11.064Z,85.41
2018-11-14T14:45:39.720Z,84.68
2018-11-14T14:48:08.377Z,84.76
2018-11-14T14:50:37.089Z,84.72
2018-11-14T14:53:06.087Z,84.51
2018-11-14T14:55:34.735Z,84.32
2018-11-14T14:58:03.522Z,84.37
2018-11-14T15:00:32.197Z,83.94
2018-11-14T15:03:00.922Z,83.93
2018-11-14T15:05:29.553Z,82.82
2018-11-14T15:07:58.263Z,82.87
2018-11-14T15:10:26.969Z,82.59
2018-11-14T15:12:55.639Z,82.40
2018-11-14T15:15:24.324Z,81.76
2018-11-14T15:17:52.993Z,81.59
2018-11-14T15:20:22.970Z,81.56
2018-11-14T15:22:51.689Z,80.89
2018-11-14T15:25:21.790Z,81.06
2018-11-14T15:27:50.916Z,80.63
2018-11-14T15:30:22.831Z,80.79
2018-11-14T15:32:51.572Z,80.94
2018-11-14T15:35:20.310Z,81.01
2018-11-14T15:37:48.919Z,81.00
2018-11-14T15:40:18.632Z,80.86
2018-11-14T15:42:47.566Z,81.22
2018-11-14T15:45:30.810Z,81.01
2018-11-14T15:47:59.701Z,81.07
2018-11-14T15:50:29.778Z,80.80
2018-11-14T15:52:58.899Z,81.44
2018-11-14T15:55:27.636Z,81.62
2018-11-14T15:57:56.732Z,81.39
2018-11-14T16:00:32.835Z,81.70
2018-11-14T16:03:01.574Z,81.72
2018-11-14T16:05:31.617Z,81.79
2018-11-14T16:08:01.563Z,82.04
2018-11-14T16:10:31.222Z,81.73
2018-11-14T16:12:59.988Z,82.37
2018-11-14T16:15:30.338Z,82.06
2018-11-14T16:17:59.071Z,81.73
2018-11-14T16:20:28.104Z,81.54
2018-11-14T16:22:56.859Z,81.91
2018-11-14T16:25:26.413Z,81.63
2018-11-14T16:27:56.409Z,81.98
2018-11-14T16:30:27.467Z,81.86
2018-11-14T16:32:57.513Z,81.24
2018-11-14T16:35:26.336Z,81.83
2018-11-14T16:37:55.469Z,81.70
2018-11-14T16:40:27.344Z,81.32
2018-11-14T16:42:56.960Z,81.50
2018-11-14T16:45:25.815Z,81.75
2018-11-14T16:47:54.714Z,81.04
2018-11-14T16:50:23.905Z,81.17
2018-11-14T16:52:52.648Z,81.16
2018-11-14T16:55:22.074Z,80.74
2018-11-14T16:57:51.737Z,80.97
2018-11-14T17:00:21.913Z,80.65
2018-11-14T17:02:50.593Z,80.54
2018-11-14T17:05:19.781Z,80.13
2018-11-14T17:07:48.628Z,79.79
2018-11-14T17:10:18.666Z,79.51
2018-11-14T17:12:48.421Z,78.66
2018-11-14T17:15:19.616Z,79.64
2018-11-14T17:17:48.340Z,78.91
2018-11-14T17:20:18.077Z,78.85
2018-11-14T17:22:47.344Z,78.71
2018-11-14T17:25:16.883Z,78.83
2018-11-14T17:27:45.960Z,78.39
2018-11-14T17:30:16.331Z,78.28
2018-11-14T17:32:45.254Z,78.79
2018-11-14T17:35:15.478Z,78.40
2018-11-14T17:37:44.707Z,78.61
2018-11-14T17:40:17.787Z,78.84
2018-11-14T17:42:47.311Z,78.14
2018-11-14T17:45:18.309Z,78.11
2018-11-14T17:47:47.841Z,78.61
2018-11-14T17:50:18.476Z,77.82
2018-11-14T17:52:47.969Z,77.45
2018-11-14T17:55:17.649Z,77.54
2018-11-14T17:57:46.388Z,77.50
2018-11-14T18:00:16.454Z,77.48
2018-11-14T18:02:45.682Z,77.42
2018-11-14T18:05:19.575Z,77.05
2018-11-14T18:07:49.350Z,77.25
2018-11-14T18:10:19.351Z,77.13
2018-11-14T18:12:49.057Z,77.22
2018-11-14T18:15:17.928Z,77.45
2018-11-14T18:17:47.021Z,77.12
2018-11-14T18:20:18.065Z,77.15
2018-11-14T18:22:47.366Z,77.11
2018-11-14T18:25:16.457Z,76.83
2018-11-14T18:27:45.128Z,76.93
2018-11-14T18:30:18.217Z,76.87
2018-11-14T18:32:46.921Z,77.16
2018-11-14T18:35:16.667Z,76.65
2018-11-14T18:37:46.132Z,77.08
2018-11-14T18:40:17.113Z,76.73
2018-11-14T18:42:46.181Z,76.92
2018-11-14T18:45:19.473Z,76.74
2018-11-14T18:47:48.571Z,77.50
2018-11-14T18:50:17.953Z,77.12
2018-11-14T18:52:47.264Z,77.28
2018-11-14T18:55:18.013Z,77.15
2018-11-14T18:57:47.123Z,77.01
2018-11-14T19:00:19.294Z,76.63
2018-11-14T19:02:48.261Z,76.57
2018-11-14T19:05:17.695Z,76.84
2018-11-14T19:07:46.430Z,76.32
2018-11-14T19:10:16.455Z,76.50
2018-11-14T19:12:46.129Z,76.09
2018-11-14T19:15:17.323Z,76.43
2018-11-14T19:17:45.982Z,76.26
2018-11-14T19:20:16.905Z,76.44
2018-11-14T19:22:45.617Z,76.43
2018-11-14T19:25:15.534Z,76.45
2018-11-14T19:27:44.926Z,76.26
2018-11-14T19:30:16.365Z,76.14
2018-11-14T19:32:46.945Z,76.16
2018-11-14T19:35:15.861Z,76.05
2018-11-14T19:37:45.730Z,75.92
2018-11-14T19:40:16.314Z,75.94
2018-11-14T19:42:45.673Z,76.11
2018-11-14T19:45:16.781Z,76.04
2018-11-14T19:47:45.485Z,76.07
2018-11-14T19:50:18.084Z,76.25
2018-11-14T19:52:47.069Z,76.04
2018-11-14T19:55:17.187Z,76.38
2018-11-14T19:57:46.902Z,76.50
2018-11-14T20:00:18.871Z,76.57
2018-11-14T20:02:47.550Z,76.38
2018-11-14T20:05:17.374Z,76.87
2018-11-14T20:07:46.093Z,76.45
2018-11-14T20:10:23.024Z,76.29
2018-11-14T20:12:52.202Z,76.23
2018-11-14T20:15:22.408Z,76.06
2018-11-14T20:17:51.341Z,76.22
2018-11-14T20:20:21.653Z,76.36
2018-11-14T20:22:50.365Z,76.49
2018-11-14T20:25:19.301Z,76.63
2018-11-14T20:27:48.261Z,76.64
2018-11-14T20:30:21.357Z,76.77
2018-11-14T20:32:50.524Z,77.01
2018-11-14T20:35:20.237Z,76.70
2018-11-14T20:37:48.989Z,76.91
2018-11-14T20:40:20.006Z,77.05
2018-11-14T20:42:49.873Z,76.79
2018-11-14T20:45:21.313Z,76.89
2018-11-14T20:47:50.052Z,77.41
2018-11-14T20:50:20.048Z,77.24
2018-11-14T20:52:50.376Z,77.39
2018-11-14T20:55:19.135Z,77.37
2018-11-14T20:57:47.834Z,77.26
2018-11-14T21:00:23.137Z,77.39
2018-11-14T21:02:52.345Z,77.85
2018-11-14T21:05:22.133Z,77.26
2018-11-14T21:07:50.989Z,77.37
2018-11-14T21:10:21.180Z,77.42
2018-11-14T21:12:50.789Z,76.95
2018-11-14T21:15:20.834Z,77.66
2018-11-14T21:17:50.269Z,77.75
2018-11-14T21:20:19.337Z,77.77
2018-11-14T21:22:48.072Z,78.15
2018-11-14T21:25:18.026Z,78.03
2018-11-14T21:27:47.367Z,78.15
2018-11-14T21:30:18.358Z,78.17
2018-11-14T21:32:47.056Z,78.10
2018-11-14T21:35:19.126Z,78.17
2018-11-14T21:37:49.410Z,78.51
2018-11-14T21:40:18.131Z,78.47
2018-11-14T21:42:46.869Z,78.16
2018-11-14T21:45:16.775Z,78.26
2018-11-14T21:47:50.590Z,78.57
2018-11-14T21:50:20.441Z,78.69
2018-11-14T21:52:49.493Z,78.72
2018-11-14T21:55:18.557Z,78.73
2018-11-14T21:57:47.373Z,78.75
2018-11-14T22:00:18.810Z,78.83
2018-11-14T22:02:49.927Z,78.98
2018-11-14T22:05:18.608Z,78.87
2018-11-14T22:07:47.313Z,78.94
2018-11-14T22:10:17.318Z,79.17
2018-11-14T22:12:46.529Z,79.07
2018-11-14T22:15:16.245Z,79.19
2018-11-14T22:17:44.949Z,79.29
2018-11-14T22:20:14.921Z,79.54
2018-11-14T22:22:44.314Z,79.43
2018-11-14T22:25:14.157Z,79.46
2018-11-14T22:27:42.958Z,79.74
2018-11-14T22:30:13.853Z,79.44
2018-11-14T22:32:42.533Z,79.79
2018-11-14T22:35:13.834Z,79.23
2018-11-14T22:37:42.553Z,79.61
2018-11-14T22:40:13.347Z,79.56
2018-11-14T22:42:42.181Z,79.55
2018-11-14T22:45:13.073Z,79.97
2018-11-14T22:47:42.254Z,79.89
2018-11-14T22:50:12.269Z,79.79
2018-11-14T22:52:42.014Z,79.83
2018-11-14T22:55:11.958Z,80.10
2018-11-14T22:57:40.859Z,80.43
2018-11-14T23:00:50.397Z,80.33
2018-11-14T23:03:19.045Z,80.35
2018-11-14T23:05:47.795Z,80.32
2018-11-14T23:08:16.480Z,80.44
2018-11-14T23:10:45.201Z,80.55
2018-11-14T23:13:13.844Z,80.34
2018-11-14T23:15:42.524Z,80.38
2018-11-14T23:18:11.215Z,80.54
2018-11-14T23:20:39.827Z,80.47
2018-11-14T23:23:08.499Z,80.36
2018-11-14T23:25:37.171Z,80.57
2018-11-14T23:28:05.886Z,80.29
2018-11-14T23:30:34.612Z,80.35
2018-11-14T23:33:03.302Z,80.52
2018-11-14T23:35:32.642Z,80.28
2018-11-14T23:38:04.614Z,80.41
2018-11-14T23:40:33.399Z,80.61
2018-11-14T23:43:02.177Z,80.69
2018-11-14T23:45:31.463Z,80.24
2018-11-14T23:48:00.085Z,80.40
2018-11-14T23:50:29.956Z,80.63
2018-11-14T23:52:59.610Z,80.23
2018-11-14T23:55:29.098Z,80.26
2018-11-14T23:57:58.085Z,79.93
